Colorado Springs, CO

12:52 AM MDT on August 30, 2014 (GMT -0600)
City Of Colorado Springs Municipal | Change Station
CLOSE
Current Station
Airport
Location: Colorado Springs,
Elevation: 6171 ft
Nearby Weather Stations

Elev 6171 ft 38.81 °N, 104.69 °W | Updated 58 minutes ago

Mostly Cloudy
Mostly Cloudy
58 °F
Feels Like 58 °F
N
7
Wind Variable Wind from North

Today
High -- | Low -- °F
--% Chance of Precip.
Yesterday
High -- | Low -- °F
Precip. -- in
6:26 AM 7:31 PM
Waxing Crescent, 19% visible
Pressure 29.99 in
Visibility 10.0 miles
Clouds Mostly Cloudy 19000 ft
Dew Point 47 °F
Humidity 67%
Rainfall 0.00 in
Snow Depth Not available.
UV 0 out of 12
Pollen 10.00 out of 12
Ozone Good
PM2.5 Good
Flu Activity Not available.
METAR KCOS 300554Z 35006KT 10SM BKN190 14/08 A3022 RMK AO2 SLP153 60000 T01440083 10189 20144 58002

More Conditions Fewer Conditions

Pressure 29.99 in
Visibility 10.0 miles
Clouds Mostly Cloudy 19000 ft
Dew Point 47 °F
Humidity 67%
Rainfall 0.00 in
Snow Depth Not available.
UV 0 out of 12
Pollen 10.00 out of 12
Ozone Good
PM2.5 Good
Flu Activity Not available.
METAR KCOS 300554Z 35006KT 10SM BKN190 14/08 A3022 RMK AO2 SLP153 60000 T01440083 10189 20144 58002

More Conditions Fewer Conditions

10-Day Weather Forecast

Almanac

Astronomy

Aug. 30, 2014 Rise Set
Actual Time 6:26 AM MDT 7:31 PM MDT
Civil Twilight 5:58 AM MDT 7:59 PM MDT
Nautical Twilight 5:26 AM MDT 8:31 PM MDT
Astronomical Twilight 4:52 AM MDT 9:05 PM MDT
Moon 11:12 AM MDT 10:11 PM MDT
Length of Visible Light 14h 00m
Length of Day
13h 05m
Tomorrow will be 2m 24s shorter.
Waxing Crescent, 19% of the Moon is Illuminated
Today
Waxing Crescent
Sep 2
First Quarter
Sep 8
Full
Sep 15
Last Quarter
Sep 24
New

Today's Extremes

State Highs State Lows

Community

WunderPhotos

Upload Photos

1,748,462 photos uploaded!

Nearby

Air Quality

  Air Quality AQ Index Pollutant
Yesterday Good
OZONE
Current Good
OZONE
Current Good
PM2.5
Friday Good
PM2.5
Friday Good
OZONE
Saturday Good
PM2.5
Saturday Good
OZONE

Snow Depth

Station Depth Elevation
Glen Cove 0 in 11460 ft
South Colony 0 in 10800 ft
Echo Lake 0 in 10600 ft
Rough And Tumble 1 in 10360 ft
Medano Pass 0 in 9620 ft

Earthquake Activity

City Distance Mag. Time & Date
No recent earthquake activity has been reported nearby.
Minimum magnitude displayed is 2.5.

Coastal Water Temperatures

Place Temperature
No Stations Reporting

Nearby Weather Stations